Time;durP1;ratioP1;P1;durP2;ratioP2;P2;SDS_P1;SDS_P2;PMS_P1;PMS_P2;Temp;Humidity;BMP_temperature;BMP_pressure;BME280_temperature;BME280_humidity;BME280_pressure;Samples;Min_cycle;Max_cycle;Signal;HPM_P1;HPM_P2
2022/12/11 00:02:13;;;;;;;79.40;38.15;;;0.40;99.90;;;;;;2603326;54;19934;31
2022/12/11 00:04:48;;;;;;;85.97;39.20;;;0.30;99.90;;;;;;2603125;54;20815;31
2022/12/11 00:07:25;;;;;;;86.13;41.37;;;0.40;99.90;;;;;;2603233;54;20846;31
2022/12/11 00:10:01;;;;;;;89.90;40.88;;;0.40;99.90;;;;;;2603295;54;20085;31
2022/12/11 00:12:39;;;;;;;96.10;44.70;;;0.40;99.90;;;;;;2603196;54;20064;31
2022/12/11 00:15:15;;;;;;;83.85;42.20;;;0.30;99.90;;;;;;2603097;54;20842;31
2022/12/11 00:17:50;;;;;;;87.20;41.63;;;0.40;99.90;;;;;;2603293;54;20882;31
2022/12/11 00:20:27;;;;;;;92.25;43.40;;;0.30;99.90;;;;;;2603082;54;20033;31
2022/12/11 00:23:06;;;;;;;82.97;41.45;;;0.30;99.90;;;;;;2603305;54;20030;31
2022/12/11 00:25:45;;;;;;;86.75;41.10;;;0.30;99.90;;;;;;2603303;54;20110;31
2022/12/11 00:28:19;;;;;;;91.43;43.70;;;0.40;99.90;;;;;;2603071;54;20053;31
2022/12/11 00:30:56;;;;;;;85.72;40.47;;;0.40;99.90;;;;;;2603065;54;20136;31
2022/12/11 00:33:31;;;;;;;88.07;44.28;;;0.30;99.90;;;;;;2603034;54;20038;31
2022/12/11 00:36:11;;;;;;;84.93;40.37;;;0.30;99.90;;;;;;2603119;54;20026;31
2022/12/11 00:38:48;;;;;;;95.60;41.60;;;0.30;99.90;;;;;;2603135;54;20101;31
2022/12/11 00:41:24;;;;;;;88.73;40.90;;;0.30;99.90;;;;;;2603043;54;20047;31
2022/12/11 00:44:01;;;;;;;83.85;41.85;;;0.30;99.90;;;;;;2621771;47;20835;31
2022/12/11 00:46:36;;;;;;;88.45;40.45;;;0.30;99.90;;;;;;2602899;54;20927;31
2022/12/11 00:49:10;;;;;;;88.95;40.03;;;0.30;99.90;;;;;;2603073;54;20022;31
2022/12/11 00:51:45;;;;;;;91.32;41.95;;;0.30;99.90;;;;;;2602977;54;20821;31
2022/12/11 00:54:27;;;;;;;88.18;41.05;;;0.30;99.90;;;;;;2602920;54;20116;31
2022/12/11 00:57:02;;;;;;;85.13;41.58;;;0.30;99.90;;;;;;2603249;54;20027;31
2022/12/11 00:59:37;;;;;;;88.43;39.50;;;0.30;99.90;;;;;;2621335;47;20031;31
2022/12/11 01:02:11;;;;;;;83.40;38.40;;;0.30;99.90;;;;;;2602932;54;20043;31
2022/12/11 01:04:46;;;;;;;79.03;36.92;;;0.30;99.90;;;;;;2603199;54;20026;31
2022/12/11 01:07:22;;;;;;;73.45;36.75;;;0.20;99.90;;;;;;2603219;54;20937;31
2022/12/11 01:12:51;;;;;;;83.75;38.90;;;0.30;99.90;;;;;;2603183;54;20846;31
2022/12/11 01:15:28;;;;;;;76.63;35.72;;;0.30;99.90;;;;;;2602941;54;20030;31
2022/12/11 01:18:03;;;;;;;73.93;37.30;;;0.20;99.90;;;;;;2602248;54;20905;31
2022/12/11 01:20:39;;;;;;;82.25;41.25;;;0.30;99.90;;;;;;2603031;54;20823;31
2022/12/11 01:23:15;;;;;;;77.82;37.88;;;0.20;99.90;;;;;;2603258;54;20034;31
2022/12/11 01:25:52;;;;;;;76.20;36.27;;;0.20;99.90;;;;;;2602964;54;20175;31
2022/12/11 01:28:27;;;;;;;73.97;36.75;;;0.20;99.90;;;;;;2602799;54;21161;31
2022/12/11 01:31:04;;;;;;;79.45;38.17;;;0.20;99.90;;;;;;2602890;54;20052;31
2022/12/11 01:33:38;;;;;;;;;;;0.20;99.90;;;;;;2603217;54;20808;31
2022/12/11 01:36:14;;;;;;;84.00;35.97;;;0.20;99.90;;;;;;2602833;54;20788;31
2022/12/11 01:38:54;;;;;;;72.75;34.25;;;0.20;99.90;;;;;;2603738;54;20026;31
2022/12/11 01:41:32;;;;;;;76.15;37.20;;;0.20;99.90;;;;;;2603615;54;20097;31
2022/12/11 01:44:07;;;;;;;75.50;37.03;;;0.10;99.90;;;;;;2603788;54;20033;31
2022/12/11 01:46:41;;;;;;;61.03;30.08;;;0.20;99.90;;;;;;2603737;54;20870;31
2022/12/11 01:49:18;;;;;;;74.03;33.93;;;0.20;99.90;;;;;;2603515;54;20077;31
2022/12/11 01:51:55;;;;;;;79.10;37.70;;;0.10;99.90;;;;;;2603563;54;20860;31
2022/12/11 01:54:30;;;;;;;69.80;35.33;;;0.10;99.90;;;;;;2603777;54;20026;31
2022/12/11 01:57:08;;;;;;;75.60;38.55;;;0.10;99.90;;;;;;2613469;46;20890;31
2022/12/11 01:59:44;;;;;;;73.25;34.25;;;0.10;99.90;;;;;;2603704;54;20053;31
2022/12/11 02:02:21;;;;;;;79.40;37.15;;;0.10;99.90;;;;;;2603567;54;20037;31
2022/12/11 02:04:55;;;;;;;;;;;0.10;99.90;;;;;;2603849;54;20026;31
2022/12/11 02:07:30;;;;;;;66.33;33.83;;;0.10;99.90;;;;;;2608924;46;20730;31
2022/12/11 02:10:04;;;;;;;79.93;36.63;;;0.00;99.90;;;;;;2603838;54;20838;31
2022/12/11 02:12:47;;;;;;;76.15;35.30;;;0.10;99.90;;;;;;2603603;54;20810;31
2022/12/11 02:15:20;;;;;;;69.72;34.40;;;0.00;99.90;;;;;;2603784;54;20030;31
2022/12/11 02:17:57;;;;;;;76.20;35.97;;;0.00;99.90;;;;;;2603551;54;20023;31
2022/12/11 02:20:34;;;;;;;72.45;36.03;;;0.00;99.90;;;;;;2603421;54;20030;31
2022/12/11 02:23:30;;;;;;;71.22;34.17;;;0.00;99.90;;;;;;2603697;54;20026;31
2022/12/11 02:26:12;;;;;;;71.60;34.40;;;0.10;99.90;;;;;;2603455;54;20133;31
2022/12/11 02:28:51;;;;;;;67.00;34.10;;;0.00;99.90;;;;;;2603438;54;20904;31
2022/12/11 02:31:28;;;;;;;74.63;33.30;;;0.00;99.90;;;;;;2622191;46;20840;31
2022/12/11 02:34:04;;;;;;;67.40;33.90;;;0.00;99.90;;;;;;2603243;54;20042;31
2022/12/11 02:36:40;;;;;;;71.28;34.65;;;0.00;99.90;;;;;;2603646;54;19961;31
2022/12/11 02:39:15;;;;;;;72.82;33.13;;;0.00;99.90;;;;;;2603695;54;20912;31
2022/12/11 02:41:51;;;;;;;67.88;33.15;;;0.00;99.90;;;;;;2603445;54;20081;31
2022/12/11 02:44:30;;;;;;;65.88;32.70;;;0.00;99.90;;;;;;2622233;46;20037;31
2022/12/11 02:47:10;;;;;;;72.50;34.80;;;0.00;99.90;;;;;;2603545;54;20080;31
2022/12/11 02:52:16;;;;;;;75.63;35.92;;;0.00;99.90;;;;;;2603533;54;20018;31
2022/12/11 02:54:50;;;;;;;73.63;37.35;;;0.00;99.90;;;;;;2603640;54;20022;31
2022/12/11 02:57:27;;;;;;;70.65;34.05;;;0.00;99.90;;;;;;2603578;54;20049;31
2022/12/11 03:00:05;;;;;;;;;;;0.00;99.90;;;;;;2603902;54;20089;31
2022/12/11 03:02:39;;;;;;;69.77;34.57;;;0.00;99.90;;;;;;2603597;54;19949;31
2022/12/11 03:05:15;;;;;;;63.88;33.30;;;0.00;99.90;;;;;;2603346;54;20052;31
2022/12/11 03:07:50;;;;;;;;;;;0.00;99.90;;;;;;2603641;54;20867;31
2022/12/11 03:10:25;;;;;;;72.25;32.60;;;0.00;99.90;;;;;;2603364;54;19934;31
2022/12/11 03:13:01;;;;;;;73.10;33.83;;;-0.10;99.90;;;;;;2603418;54;20050;31
2022/12/11 03:15:41;;;;;;;72.40;35.85;;;-0.10;99.90;;;;;;2603614;54;20027;31
2022/12/11 03:18:17;;;;;;;74.33;35.57;;;-0.10;99.90;;;;;;2621920;46;20038;31
2022/12/11 03:20:53;;;;;;;;;;;-0.10;99.90;;;;;;2603609;54;20245;31
2022/12/11 03:23:32;;;;;;;61.00;31.00;;;-0.10;99.90;;;;;;2603320;54;20786;31
2022/12/11 03:26:07;;;;;;;73.97;34.45;;;-0.10;99.90;;;;;;2603561;54;20037;31
2022/12/11 03:28:43;;;;;;;74.40;33.88;;;-0.10;99.90;;;;;;2603236;54;20153;31
2022/12/11 03:31:22;;;;;;;67.28;33.40;;;-0.10;99.90;;;;;;2603454;54;20026;31
2022/12/11 03:33:58;;;;;;;71.38;35.42;;;-0.20;99.90;;;;;;2603241;54;20030;31
2022/12/11 03:36:35;;;;;;;72.23;35.77;;;-0.20;99.90;;;;;;2621595;46;20034;31
2022/12/11 03:39:11;;;;;;;78.95;36.45;;;-0.10;99.90;;;;;;2621897;46;21152;31
2022/12/11 03:41:46;;;;;;;73.25;36.40;;;-0.20;99.90;;;;;;2621931;46;20856;31
2022/12/11 03:44:20;;;;;;;77.00;34.00;;;-0.20;99.90;;;;;;2603306;54;20597;31
2022/12/11 03:46:57;;;;;;;75.65;36.78;;;-0.20;99.90;;;;;;2603405;54;20928;31
2022/12/11 03:49:35;;;;;;;70.85;35.88;;;-0.20;99.90;;;;;;2608952;46;20049;31
2022/12/11 03:52:11;;;;;;;69.75;34.80;;;-0.20;99.90;;;;;;2603487;54;19934;31
2022/12/11 03:54:47;;;;;;;74.53;37.40;;;-0.10;99.90;;;;;;2604112;46;20037;31
2022/12/11 03:57:22;;;;;;;;;;;-0.20;99.90;;;;;;2603320;54;20065;31
2022/12/11 03:59:57;;;;;;;74.75;35.15;;;-0.10;99.90;;;;;;2701473;39;20325;31
2022/12/11 04:02:34;;;;;;;80.73;37.63;;;-0.20;99.90;;;;;;2621705;46;20140;31
2022/12/11 04:05:11;;;;;;;79.60;37.53;;;-0.20;99.90;;;;;;2603411;54;20033;31
2022/12/11 04:07:46;;;;;;;81.55;37.90;;;-0.20;99.90;;;;;;2603398;54;20800;31
2022/12/11 04:10:21;;;;;;;80.90;39.65;;;-0.20;99.90;;;;;;2603191;54;20033;31
2022/12/11 04:12:53;;;;;;;70.40;33.70;;;-0.20;99.90;;;;;;2701986;39;21035;31
2022/12/11 04:15:25;;;;;;;74.97;35.60;;;-0.20;99.90;;;;;;2603263;54;20026;31
2022/12/11 04:26:24;;;;;;;75.03;35.95;;;-0.30;99.90;;;;;;2603481;54;19934;31
2022/12/11 04:28:58;;;;;;;68.95;34.70;;;-0.30;99.90;;;;;;2603079;54;20034;31
2022/12/11 04:31:34;;;;;;;67.03;35.50;;;-0.30;99.90;;;;;;2610211;39;21018;31
2022/12/11 04:34:10;;;;;;;68.07;36.15;;;-0.30;99.90;;;;;;2615939;46;22295;31
2022/12/11 04:36:44;;;;;;;70.78;34.95;;;-0.40;99.90;;;;;;2603079;54;20026;31
2022/12/11 04:39:21;;;;;;;67.10;34.87;;;-0.40;99.90;;;;;;2602889;54;20054;31
2022/12/11 04:41:55;;;;;;;68.82;35.85;;;-0.40;99.90;;;;;;2603270;54;20923;31
2022/12/11 04:44:30;;;;;;;65.18;33.72;;;-0.30;99.90;;;;;;2603004;54;20820;31
2022/12/11 04:47:05;;;;;;;67.15;35.90;;;-0.40;99.90;;;;;;2603013;54;20876;31
2022/12/11 04:49:45;;;;;;;63.00;33.85;;;-0.30;99.90;;;;;;2603177;54;20027;31
2022/12/11 04:52:18;;;;;;;64.78;34.42;;;-0.40;99.90;;;;;;2603120;54;20093;31
2022/12/11 04:54:53;;;;;;;62.45;34.08;;;-0.30;99.90;;;;;;2603095;54;20050;31
2022/12/11 04:57:32;;;;;;;62.75;33.00;;;-0.30;99.90;;;;;;2602976;54;20093;31
2022/12/11 05:02:40;;;;;;;65.60;34.63;;;-0.30;99.90;;;;;;2606147;47;20027;31
2022/12/11 05:05:19;;;;;;;60.35;32.35;;;-0.40;99.90;;;;;;2603287;54;20904;31
2022/12/11 05:07:54;;;;;;;63.67;30.80;;;-0.40;99.90;;;;;;2603218;54;20030;31
2022/12/11 05:10:29;;;;;;;58.00;31.63;;;-0.40;99.90;;;;;;2701486;39;20461;31
2022/12/11 05:13:04;;;;;;;58.10;31.73;;;-0.40;99.90;;;;;;2603757;54;20140;31
2022/12/11 05:15:41;;;;;;;58.22;32.15;;;-0.40;99.90;;;;;;2603531;54;20904;31
2022/12/11 05:18:16;;;;;;;56.05;29.80;;;-0.50;99.90;;;;;;2603595;54;20897;31
2022/12/11 05:21:00;;;;;;;62.47;31.20;;;-0.50;99.90;;;;;;2603840;54;20026;31
2022/12/11 05:23:37;;;;;;;55.80;30.60;;;-0.50;99.90;;;;;;2604076;54;20831;31
2022/12/11 05:26:15;;;;;;;58.00;31.47;;;-0.50;99.90;;;;;;2622461;46;20105;31
2022/12/11 05:28:53;;;;;;;53.38;29.33;;;-0.50;99.90;;;;;;2603472;54;20064;31
2022/12/11 05:31:28;;;;;;;56.53;29.42;;;-0.50;99.90;;;;;;2603664;54;20042;31
2022/12/11 05:34:03;;;;;;;53.08;29.50;;;-0.50;99.90;;;;;;2603841;54;20057;31
2022/12/11 05:36:41;;;;;;;54.00;29.35;;;-0.50;99.90;;;;;;2603620;54;20029;31
2022/12/11 05:39:16;;;;;;;52.80;28.58;;;-0.50;99.90;;;;;;2603740;54;20580;31
2022/12/11 05:41:51;;;;;;;49.80;27.13;;;-0.50;99.90;;;;;;2603880;54;20801;31
2022/12/11 05:44:29;;;;;;;53.38;28.10;;;-0.50;99.90;;;;;;2622359;46;20030;31
2022/12/11 05:47:04;;;;;;;47.13;26.60;;;-0.50;99.90;;;;;;2603843;54;20030;31
2022/12/11 05:49:40;;;;;;;55.60;27.00;;;-0.50;99.90;;;;;;2603711;54;20030;31
2022/12/11 05:52:19;;;;;;;52.10;27.55;;;-0.50;99.90;;;;;;2603660;54;20051;31
2022/12/11 05:54:53;;;;;;;47.97;25.38;;;-0.50;99.90;;;;;;2603642;54;20092;31
2022/12/11 05:57:29;;;;;;;51.28;27.02;;;-0.60;99.90;;;;;;2603659;54;20891;31
2022/12/11 06:00:04;;;;;;;50.57;27.53;;;-0.50;99.90;;;;;;2603653;54;20879;31
2022/12/11 06:02:40;;;;;;;48.42;25.67;;;-0.50;99.90;;;;;;2621982;46;20775;31
2022/12/11 06:05:15;;;;;;;56.15;28.65;;;-0.50;99.90;;;;;;2603387;54;20030;31
2022/12/11 06:07:53;;;;;;;45.27;23.90;;;-0.60;99.90;;;;;;2603622;54;20053;31
2022/12/11 06:10:28;;;;;;;48.72;25.42;;;-0.50;99.90;;;;;;2622373;46;20031;31
2022/12/11 06:13:03;;;;;;;47.35;24.90;;;-0.60;99.90;;;;;;2603693;54;20046;31
2022/12/11 06:15:37;;;;;;;40.70;24.50;;;-0.60;99.90;;;;;;2603920;54;20050;31
2022/12/11 06:18:13;;;;;;;48.15;26.45;;;-0.50;99.90;;;;;;2603697;54;20089;31
2022/12/11 06:20:49;;;;;;;42.10;25.15;;;-0.50;99.90;;;;;;2603543;54;20045;31
2022/12/11 06:23:26;;;;;;;45.95;27.00;;;-0.50;99.90;;;;;;2603466;54;20197;31
2022/12/11 06:26:02;;;;;;;44.75;25.30;;;-0.50;99.90;;;;;;2603751;54;20034;31
2022/12/11 06:28:37;;;;;;;48.70;25.80;;;-0.50;99.90;;;;;;2702058;39;20485;31
2022/12/11 06:31:11;;;;;;;42.20;24.53;;;-0.50;99.90;;;;;;2603736;54;20721;31
2022/12/11 06:33:49;;;;;;;44.85;25.25;;;-0.40;99.90;;;;;;2603476;54;20337;31
2022/12/11 06:36:24;;;;;;;42.90;21.90;;;-0.50;99.90;;;;;;2603469;54;20042;31
2022/12/11 06:39:02;;;;;;;44.63;24.63;;;-0.50;99.90;;;;;;2603381;54;20353;31
2022/12/11 06:41:36;;;;;;;45.67;24.77;;;-0.50;99.90;;;;;;2602894;54;20900;31
2022/12/11 06:44:12;;;;;;;46.40;25.73;;;-0.50;99.90;;;;;;2603417;54;20030;31
2022/12/11 06:46:47;;;;;;;45.97;26.52;;;-0.50;99.90;;;;;;2603367;54;20030;31
2022/12/11 06:49:21;;;;;;;47.42;25.88;;;-0.50;99.90;;;;;;2701837;39;20588;31
2022/12/11 06:51:57;;;;;;;45.30;26.08;;;-0.50;99.90;;;;;;2603354;54;20081;31
2022/12/11 06:54:35;;;;;;;44.92;25.27;;;-0.50;99.90;;;;;;2603775;54;20022;31
2022/12/11 06:57:11;;;;;;;43.05;23.48;;;-0.50;99.90;;;;;;2603329;54;20053;31
2022/12/11 06:59:44;;;;;;;;;;;-0.50;99.90;;;;;;2603496;54;20986;31
2022/12/11 07:02:20;;;;;;;41.90;22.70;;;-0.50;99.90;;;;;;2622106;46;19934;31
2022/12/11 07:04:56;;;;;;;42.08;24.25;;;-0.50;99.90;;;;;;2615287;46;20874;31
2022/12/11 07:07:31;;;;;;;41.85;24.33;;;-0.60;99.90;;;;;;2621420;46;20851;31
2022/12/11 07:10:11;;;;;;;42.47;23.83;;;-0.40;99.90;;;;;;2603357;54;20033;31
2022/12/11 07:12:46;;;;;;;43.85;24.98;;;-0.40;99.90;;;;;;2603491;54;21243;31
2022/12/11 07:15:21;;;;;;;42.10;23.70;;;-0.30;99.90;;;;;;2603309;54;20053;31
2022/12/11 07:17:57;;;;;;;45.00;24.90;;;-0.30;99.90;;;;;;2603289;54;20031;31
2022/12/11 07:20:33;;;;;;;45.92;25.00;;;-0.30;99.90;;;;;;2603230;54;20133;31
2022/12/11 07:23:10;;;;;;;45.65;24.75;;;-0.40;99.90;;;;;;2621917;46;20034;31
2022/12/11 07:25:49;;;;;;;43.60;23.90;;;-0.40;99.90;;;;;;2603294;54;20808;31
2022/12/11 07:28:25;;;;;;;42.45;25.55;;;-0.40;99.90;;;;;;2603219;54;20582;31
2022/12/11 07:31:00;;;;;;;45.25;25.20;;;-0.40;99.90;;;;;;2603398;54;20030;31
2022/12/11 07:33:38;;;;;;;42.15;23.63;;;-0.40;99.90;;;;;;2603126;54;20031;31
2022/12/11 07:36:14;;;;;;;48.17;25.15;;;-0.60;99.90;;;;;;2603193;54;20955;31
2022/12/11 07:38:51;;;;;;;35.45;20.45;;;-0.50;99.90;;;;;;2603460;54;20053;31
2022/12/11 07:41:30;;;;;;;56.75;29.95;;;-0.50;99.90;;;;;;2603246;54;21061;31
2022/12/11 07:44:06;;;;;;;51.80;27.75;;;-0.50;99.90;;;;;;2603462;54;20046;31
2022/12/11 07:46:42;;;;;;;43.22;22.90;;;-0.50;99.90;;;;;;2603113;54;20027;31
2022/12/11 07:49:17;;;;;;;;;;;-0.50;99.90;;;;;;2603520;54;20029;31
2022/12/11 07:51:53;;;;;;;38.95;21.58;;;-0.60;99.90;;;;;;2603112;54;20035;31
2022/12/11 07:54:30;;;;;;;37.83;20.08;;;-0.60;99.90;;;;;;2603227;54;20042;31
2022/12/11 07:57:10;;;;;;;39.25;21.30;;;-0.60;99.90;;;;;;2603124;54;20790;31
2022/12/11 07:59:48;;;;;;;34.75;19.83;;;-0.60;99.90;;;;;;2603235;54;20038;31
2022/12/11 08:02:23;;;;;;;37.95;20.33;;;-0.60;99.90;;;;;;2621888;46;20045;31
2022/12/11 08:04:57;;;;;;;41.75;20.92;;;-0.60;99.90;;;;;;2602976;54;20916;31
2022/12/11 08:07:35;;;;;;;39.73;20.60;;;-0.70;99.90;;;;;;2603217;54;20873;31
2022/12/11 08:10:11;;;;;;;41.00;21.25;;;-0.60;99.90;;;;;;2603068;54;20046;31
2022/12/11 08:12:49;;;;;;;;;;;-0.60;99.90;;;;;;2603425;54;20866;31
2022/12/11 08:15:25;;;;;;;34.80;19.55;;;-0.60;99.90;;;;;;2621753;46;19954;31
2022/12/11 08:18:03;;;;;;;35.80;19.27;;;-0.70;99.90;;;;;;2701662;39;22517;31
2022/12/11 08:20:41;;;;;;;37.40;19.65;;;-0.60;99.90;;;;;;2603000;54;20766;31
2022/12/11 08:23:17;;;;;;;36.30;19.75;;;-0.60;99.90;;;;;;2603188;54;20027;31
2022/12/11 08:25:52;;;;;;;36.70;22.07;;;-0.60;99.90;;;;;;2603265;54;20037;31
2022/12/11 08:28:29;;;;;;;34.88;20.67;;;-0.60;99.90;;;;;;2603074;54;20023;31
2022/12/11 08:31:05;;;;;;;38.25;21.42;;;-0.70;99.90;;;;;;2701699;39;20518;31
2022/12/11 08:33:41;;;;;;;31.70;18.23;;;-0.60;99.90;;;;;;2603094;54;20027;31
2022/12/11 08:36:17;;;;;;;28.60;17.30;;;-0.60;99.90;;;;;;2602889;54;20085;31
2022/12/11 08:38:53;;;;;;;41.90;22.80;;;-0.60;99.90;;;;;;2603028;54;20023;31
2022/12/11 08:41:30;;;;;;;35.10;20.45;;;-0.70;99.90;;;;;;2602887;54;20031;31
2022/12/11 08:44:12;;;;;;;35.50;20.90;;;-0.60;99.90;;;;;;2603261;54;20034;31
2022/12/11 08:46:49;;;;;;;37.50;21.88;;;-0.60;99.90;;;;;;2603689;54;20947;31
2022/12/11 08:49:24;;;;;;;36.92;20.92;;;-0.60;99.90;;;;;;2603880;54;20903;31
2022/12/11 08:52:05;;;;;;;36.90;20.75;;;-0.70;99.90;;;;;;2603813;54;20889;31
2022/12/11 08:54:41;;;;;;;33.42;18.38;;;-0.70;99.90;;;;;;2792179;31;22504;31
2022/12/11 08:57:16;;;;;;;;;;;-0.70;99.90;;;;;;2604126;54;21480;31
2022/12/11 08:59:55;;;;;;;37.33;21.10;;;-0.70;99.90;;;;;;2603400;54;20729;31
2022/12/11 09:02:29;;;;;;;36.00;21.10;;;-0.70;99.90;;;;;;2720797;39;22452;31
2022/12/11 09:05:06;;;;;;;42.43;23.37;;;-0.70;99.90;;;;;;2610027;39;22448;31
2022/12/11 09:07:42;;;;;;;40.67;23.10;;;-0.70;99.90;;;;;;2603838;54;20045;31
2022/12/11 09:10:16;;;;;;;38.75;22.60;;;-0.70;99.90;;;;;;2603763;54;20242;31
2022/12/11 09:12:52;;;;;;;36.05;21.13;;;-0.70;99.90;;;;;;2602883;54;20912;31
2022/12/11 09:15:30;;;;;;;27.45;15.80;;;-0.70;99.90;;;;;;2603589;54;20108;31
2022/12/11 09:18:05;;;;;;;34.72;20.73;;;-0.70;99.90;;;;;;2603934;54;20029;31
2022/12/11 09:20:41;;;;;;;35.17;20.77;;;-0.70;99.90;;;;;;2603635;54;20815;31
2022/12/11 09:23:16;;;;;;;37.00;20.10;;;-0.70;99.90;;;;;;2603848;54;20026;31
2022/12/11 09:25:52;;;;;;;38.25;22.13;;;-0.70;99.90;;;;;;2603539;54;20582;31
2022/12/11 09:28:27;;;;;;;35.53;19.08;;;-0.70;99.90;;;;;;2603741;54;20042;31
2022/12/11 09:31:10;;;;;;;36.72;21.27;;;-0.70;99.90;;;;;;2603718;54;20048;31
2022/12/11 09:33:46;;;;;;;37.67;19.85;;;-0.70;99.90;;;;;;2603603;54;20044;31
2022/12/11 09:36:22;;;;;;;33.65;19.10;;;-0.70;99.90;;;;;;2603691;54;20058;31
2022/12/11 09:38:57;;;;;;;38.38;21.70;;;-0.70;99.90;;;;;;2603634;54;20055;31
2022/12/11 09:41:39;;;;;;;39.55;21.00;;;-0.70;99.90;;;;;;2603706;54;20038;31
2022/12/11 09:44:36;;;;;;;34.83;21.25;;;-0.70;99.90;;;;;;2603608;54;20030;31
2022/12/11 09:47:27;;;;;;;;;;;-0.70;99.90;;;;;;2603883;54;20030;31
2022/12/11 09:50:09;;;;;;;34.53;20.83;;;-0.70;99.90;;;;;;2603646;54;19935;31
2022/12/11 09:52:51;;;;;;;35.80;20.20;;;-0.70;99.90;;;;;;2603717;54;20912;31
2022/12/11 09:55:34;;;;;;;34.92;19.73;;;-0.70;99.90;;;;;;2603607;54;20827;31
2022/12/11 09:58:09;;;;;;;33.28;20.00;;;-0.70;99.90;;;;;;2603255;54;20861;31
2022/12/11 10:00:50;;;;;;;33.95;19.20;;;-0.60;99.90;;;;;;2603077;54;20038;31
2022/12/11 10:03:48;;;;;;;38.37;21.23;;;-0.70;99.90;;;;;;2602615;54;20052;31
2022/12/11 10:06:27;;;;;;;35.95;20.33;;;-0.60;99.90;;;;;;2603717;54;20246;31
2022/12/11 10:09:05;;;;;;;31.95;19.17;;;-0.60;99.90;;;;;;2603739;54;20875;31
2022/12/11 10:11:52;;;;;;;35.17;19.48;;;-0.60;99.90;;;;;;2603660;54;20022;31
2022/12/11 10:14:38;;;;;;;36.47;20.25;;;-0.60;99.90;;;;;;2603258;54;20030;31
2022/12/11 10:17:14;;;;;;;31.75;19.75;;;-0.50;99.90;;;;;;2604345;46;19946;31
2022/12/11 10:19:49;;;;;;;33.55;19.90;;;-0.50;99.90;;;;;;2621710;46;20898;31
2022/12/11 10:22:29;;;;;;;33.15;18.73;;;-0.50;99.90;;;;;;2603272;54;20025;31
2022/12/11 10:25:04;;;;;;;29.20;16.95;;;-0.50;99.90;;;;;;2610349;39;21091;31
2022/12/11 10:27:46;;;;;;;28.92;17.40;;;-0.50;99.90;;;;;;2603447;54;20805;31
2022/12/11 10:30:22;;;;;;;29.43;16.80;;;-0.50;99.90;;;;;;2603766;54;20057;31
2022/12/11 10:33:00;;;;;;;29.23;15.27;;;-0.50;99.90;;;;;;2614751;46;22373;31
2022/12/11 10:35:37;;;;;;;29.40;16.65;;;-0.40;99.90;;;;;;2604324;46;20866;31
2022/12/11 10:38:23;;;;;;;23.35;14.55;;;-0.40;99.90;;;;;;2603417;54;20137;31
2022/12/11 10:41:00;;;;;;;24.73;14.52;;;-0.50;99.90;;;;;;2603631;54;20088;31
2022/12/11 10:43:36;;;;;;;27.55;16.15;;;-0.40;99.90;;;;;;2603156;54;20828;31
2022/12/11 10:46:17;;;;;;;27.35;15.48;;;-0.50;99.90;;;;;;2603468;54;20033;31
2022/12/11 10:48:52;;;;;;;27.00;15.52;;;-0.50;99.90;;;;;;2603504;54;20057;31
2022/12/11 10:51:36;;;;;;;25.95;15.82;;;-0.50;99.90;;;;;;2602717;54;20908;31
2022/12/11 10:54:19;;;;;;;24.07;14.37;;;-0.50;99.90;;;;;;2602536;54;20027;31
2022/12/11 10:56:54;;;;;;;22.30;15.23;;;-0.60;99.90;;;;;;2603579;54;20026;31
2022/12/11 10:59:36;;;;;;;23.90;16.03;;;-0.50;99.90;;;;;;2603526;54;20044;31
2022/12/11 11:02:20;;;;;;;28.70;17.00;;;-0.60;99.90;;;;;;2603381;54;21205;31
2022/12/11 11:04:55;;;;;;;24.02;15.07;;;-0.60;99.90;;;;;;2603536;54;20530;31
2022/12/11 11:07:32;;;;;;;27.90;17.00;;;-0.60;99.90;;;;;;2603341;54;20034;31
2022/12/11 11:10:17;;;;;;;25.00;15.02;;;-0.60;99.90;;;;;;2602877;54;19938;31
2022/12/11 11:12:58;;;;;;;24.25;16.38;;;-0.60;99.90;;;;;;2603319;54;20026;31
2022/12/11 11:15:33;;;;;;;23.60;14.70;;;-0.60;99.90;;;;;;2603215;54;20118;31
2022/12/11 11:18:13;;;;;;;21.25;13.32;;;-0.70;99.90;;;;;;2603540;54;20820;31
2022/12/11 11:20:47;;;;;;;21.10;13.65;;;-0.70;99.90;;;;;;2603319;54;20101;31
2022/12/11 11:23:23;;;;;;;22.77;13.55;;;-0.70;99.90;;;;;;2617225;46;20113;31
2022/12/11 11:26:01;;;;;;;23.65;14.07;;;-0.70;99.90;;;;;;2603262;54;20895;31
2022/12/11 11:28:38;;;;;;;22.52;13.95;;;-0.70;99.90;;;;;;2602473;54;20145;31
2022/12/11 11:31:14;;;;;;;23.20;15.32;;;-0.80;99.90;;;;;;2603192;54;20038;31
2022/12/11 11:33:53;;;;;;;29.33;16.48;;;-0.80;99.90;;;;;;2603453;54;20031;31
2022/12/11 11:36:28;;;;;;;31.25;17.38;;;-0.70;99.90;;;;;;2603267;54;20026;31
2022/12/11 11:39:16;;;;;;;26.60;16.60;;;-0.80;99.90;;;;;;2603400;54;20879;31
2022/12/11 11:41:56;;;;;;;25.80;17.48;;;-0.80;99.90;;;;;;2603222;54;21217;31
2022/12/11 11:44:35;;;;;;;28.03;16.67;;;-0.90;99.90;;;;;;2603261;54;20022;31
2022/12/11 11:47:12;;;;;;;28.40;17.80;;;-0.90;99.90;;;;;;2602474;54;20030;31
2022/12/11 11:49:52;;;;;;;28.60;17.93;;;-0.90;99.90;;;;;;2603153;54;20037;31
2022/12/11 11:52:30;;;;;;;30.60;17.45;;;-0.90;99.90;;;;;;2608519;46;19938;31
2022/12/11 11:55:08;;;;;;;29.13;17.23;;;-1.00;99.90;;;;;;2603299;54;20018;31
2022/12/11 11:57:49;;;;;;;29.30;16.25;;;-1.00;99.90;;;;;;2603198;54;20046;31
2022/12/11 12:00:23;;;;;;;22.50;14.15;;;-1.00;99.90;;;;;;2603171;54;20037;31
2022/12/11 12:03:10;;;;;;;20.27;13.35;;;-1.00;99.90;;;;;;2603051;54;20058;31
2022/12/11 12:05:49;;;;;;;19.80;12.95;;;-1.00;99.90;;;;;;2603232;54;20030;31
2022/12/11 12:08:33;;;;;;;22.98;13.55;;;-1.00;99.90;;;;;;2603217;54;20046;31
2022/12/11 12:11:10;;;;;;;21.13;13.33;;;-1.00;99.90;;;;;;2608214;46;20083;31
2022/12/11 12:13:51;;;;;;;25.92;15.40;;;-1.00;99.90;;;;;;2602285;54;20046;31
2022/12/11 12:16:30;;;;;;;23.98;14.73;;;-1.00;99.90;;;;;;2603243;54;20030;31
2022/12/11 12:19:35;;;;;;;25.35;15.75;;;-1.00;99.90;;;;;;2603088;54;20060;31
2022/12/11 12:22:16;;;;;;;23.90;13.80;;;-1.00;99.90;;;;;;2602921;54;20022;31
2022/12/11 12:24:55;;;;;;;24.73;14.97;;;-0.90;99.90;;;;;;2603055;54;20069;31
2022/12/11 12:27:32;;;;;;;22.05;13.88;;;-0.90;99.90;;;;;;2602768;54;21304;31
2022/12/11 12:30:29;;;;;;;;;;;-1.00;99.90;;;;;;2603188;54;20042;31
2022/12/11 12:33:13;;;;;;;23.95;14.75;;;-1.00;99.90;;;;;;2608345;46;20671;31
2022/12/11 12:35:52;;;;;;;23.70;14.57;;;-1.00;99.90;;;;;;2603141;54;20038;31
2022/12/11 12:38:33;;;;;;;23.20;14.90;;;-1.00;99.90;;;;;;2602898;54;20030;31
2022/12/11 12:41:13;;;;;;;25.48;14.43;;;-1.10;99.90;;;;;;2602997;54;20058;31
2022/12/11 12:44:00;;;;;;;23.35;14.15;;;-1.10;99.90;;;;;;2603641;47;20056;31
2022/12/11 12:46:43;;;;;;;25.45;14.68;;;-1.10;99.90;;;;;;2603013;54;20029;31
2022/12/11 12:49:20;;;;;;;35.40;20.20;;;-1.10;99.90;;;;;;2603070;54;20089;31
2022/12/11 12:51:56;;;;;;;;;;;-1.10;99.90;;;;;;2603265;54;20101;31
2022/12/11 12:54:31;;;;;;;22.80;13.60;;;-1.10;99.90;;;;;;2621244;47;20004;31
2022/12/11 12:57:05;;;;;;;21.85;13.95;;;-1.10;99.90;;;;;;2602839;54;20038;31
2022/12/11 12:59:40;;;;;;;23.35;14.50;;;-1.10;99.90;;;;;;2603161;54;20022;31
2022/12/11 13:02:18;;;;;;;26.55;15.75;;;-1.10;99.90;;;;;;2602851;54;20948;31
2022/12/11 13:04:58;;;;;;;24.98;14.40;;;-1.10;99.90;;;;;;2701194;39;22322;31
2022/12/11 13:07:33;;;;;;;26.10;15.27;;;-1.10;99.90;;;;;;2602144;54;20029;31
2022/12/11 13:10:10;;;;;;;24.75;14.55;;;-1.10;99.90;;;;;;2602916;54;20037;31
2022/12/11 13:12:46;;;;;;;23.23;13.90;;;-1.10;99.90;;;;;;2604385;47;20927;31
2022/12/11 13:15:27;;;;;;;28.85;14.75;;;-1.10;99.90;;;;;;2602822;54;20097;31
2022/12/11 13:18:03;;;;;;;24.33;14.52;;;-1.00;99.90;;;;;;2603162;54;20908;31
2022/12/11 13:20:49;;;;;;;;;;;-1.10;99.90;;;;;;2603107;54;20027;31
2022/12/11 13:23:30;;;;;;;22.80;14.30;;;-1.10;99.90;;;;;;2603823;47;20034;31
2022/12/11 13:26:06;;;;;;;22.65;13.27;;;-1.10;99.90;;;;;;2602863;54;20133;31
2022/12/11 13:28:50;;;;;;;21.25;13.25;;;-1.10;99.90;;;;;;2602761;54;20030;31
2022/12/11 13:31:36;;;;;;;21.13;14.37;;;-1.10;99.90;;;;;;2602880;54;20139;31
2022/12/11 13:34:18;;;;;;;20.80;13.95;;;-1.10;99.90;;;;;;2622232;47;20947;31
2022/12/11 13:36:59;;;;;;;22.20;13.20;;;-1.20;99.90;;;;;;2604197;46;20074;31
2022/12/11 13:39:34;;;;;;;18.30;12.65;;;-1.20;99.90;;;;;;2603928;54;20053;31
2022/12/11 13:42:10;;;;;;;17.67;13.00;;;-1.20;99.90;;;;;;2603666;54;20935;31
2022/12/11 13:44:50;;;;;;;23.33;14.50;;;-1.20;99.90;;;;;;2603546;54;20959;31
2022/12/11 13:47:24;;;;;;;23.37;13.20;;;-1.20;99.90;;;;;;2610079;39;22232;31
2022/12/11 13:50:13;;;;;;;20.70;12.85;;;-1.20;99.90;;;;;;2603617;54;20030;31
2022/12/11 13:53:00;;;;;;;23.75;13.70;;;-1.20;99.90;;;;;;2603774;54;20037;31